createdAt,value
2022-12-01T00:01:20.892Z,82.03
2022-12-01T00:03:48.828Z,82.19
2022-12-01T00:06:18.817Z,82.29
2022-12-01T00:09:02.269Z,81.14
2022-12-01T00:11:30.301Z,81.19
2022-12-01T00:13:59.396Z,81.17
2022-12-01T00:16:27.838Z,80.57
2022-12-01T00:18:55.832Z,81.20
2022-12-01T00:21:25.938Z,81.49
2022-12-01T00:23:55.361Z,81.57
2022-12-01T00:26:25.035Z,81.12
2022-12-01T00:28:54.237Z,81.32
2022-12-01T00:31:24.093Z,82.06
2022-12-01T00:33:51.939Z,82.00
2022-12-01T00:36:20.117Z,82.47
2022-12-01T00:38:48.054Z,82.69
2022-12-01T00:41:16.007Z,83.25
2022-12-01T00:43:43.707Z,83.41
2022-12-01T00:46:11.682Z,83.06
2022-12-01T00:48:40.897Z,83.45
2022-12-01T00:51:08.998Z,83.27
2022-12-01T00:53:36.643Z,83.07
2022-12-01T00:56:05.173Z,83.28
2022-12-01T00:58:32.804Z,83.18
2022-12-01T01:01:03.464Z,83.21
2022-12-01T01:03:31.967Z,83.33
2022-12-01T01:06:07.483Z,83.52
2022-12-01T01:08:35.489Z,83.40
2022-12-01T01:11:03.936Z,83.54
2022-12-01T01:13:32.059Z,83.86
2022-12-01T01:16:00.734Z,83.95
2022-12-01T01:18:29.513Z,84.07
2022-12-01T01:20:58.542Z,84.25
2022-12-01T01:23:28.311Z,83.83
2022-12-01T01:26:02.139Z,84.18
2022-12-01T01:28:30.998Z,83.82
2022-12-01T01:30:58.718Z,84.34
2022-12-01T01:33:27.283Z,83.63
2022-12-01T01:35:54.917Z,83.71
2022-12-01T01:38:23.731Z,83.70
2022-12-01T01:40:52.702Z,83.62
2022-12-01T01:43:49.430Z,83.56
2022-12-01T01:46:18.739Z,83.78
2022-12-01T01:48:51.077Z,84.01
2022-12-01T01:51:23.560Z,83.65
2022-12-01T01:53:55.377Z,83.40
2022-12-01T01:56:25.026Z,83.33
2022-12-01T01:58:53.893Z,83.10
2022-12-01T02:01:22.646Z,83.18
2022-12-01T02:03:54.066Z,83.71
2022-12-01T02:06:23.790Z,83.81
2022-12-01T02:08:52.005Z,84.03
2022-12-01T02:11:49.319Z,84.13
2022-12-01T02:14:40.179Z,83.83
2022-12-01T02:17:18.755Z,83.56
2022-12-01T02:20:11.322Z,84.06
2022-12-01T02:22:54.903Z,83.65
2022-12-01T02:25:37.137Z,83.77
2022-12-01T02:28:41.430Z,84.26
2022-12-01T02:31:17.236Z,84.20
2022-12-01T02:33:54.469Z,84.35
2022-12-01T02:36:33.540Z,84.15
2022-12-01T02:39:09.305Z,84.33
2022-12-01T02:41:40.837Z,84.25
2022-12-01T02:44:14.581Z,83.64
2022-12-01T02:46:50.657Z,84.18
2022-12-01T02:49:24.068Z,83.82
2022-12-01T02:51:53.912Z,83.94
2022-12-01T02:54:23.507Z,83.92
2022-12-01T02:56:53.401Z,83.84
2022-12-01T02:59:22.100Z,84.17
2022-12-01T03:02:05.478Z,83.97
2022-12-01T03:04:47.073Z,83.90
2022-12-01T03:07:33.281Z,83.84
2022-12-01T03:10:11.696Z,84.23
2022-12-01T03:12:53.248Z,84.42
2022-12-01T03:15:29.207Z,83.97
2022-12-01T03:18:06.921Z,84.93
2022-12-01T03:20:38.975Z,85.01
2022-12-01T03:23:10.779Z,85.36
2022-12-01T03:25:41.233Z,84.95
2022-12-01T03:28:21.276Z,84.89
2022-12-01T03:30:53.625Z,85.21
2022-12-01T03:33:27.948Z,85.07
2022-12-01T03:36:01.833Z,85.11
2022-12-01T03:38:31.910Z,84.84
2022-12-01T03:41:03.276Z,84.86
2022-12-01T03:43:35.719Z,85.60
2022-12-01T03:46:09.907Z,85.51
2022-12-01T03:48:40.694Z,85.16
2022-12-01T03:51:17.043Z,85.17
2022-12-01T03:53:54.452Z,84.63
2022-12-01T03:56:26.290Z,85.09
2022-12-01T03:58:58.199Z,85.38
2022-12-01T04:01:26.504Z,85.29
2022-12-01T04:03:55.917Z,84.74
2022-12-01T04:06:23.672Z,84.88
2022-12-01T04:08:51.347Z,85.11
2022-12-01T04:11:36.993Z,85.20
2022-12-01T04:14:05.009Z,84.89
2022-12-01T04:16:32.694Z,85.04
2022-12-01T04:19:02.161Z,85.51
2022-12-01T04:21:29.805Z,85.41
2022-12-01T04:24:04.285Z,85.21
2022-12-01T04:26:33.895Z,85.10
2022-12-01T04:29:02.515Z,85.14
2022-12-01T04:31:30.407Z,85.58
2022-12-01T04:33:59.509Z,85.50
2022-12-01T04:36:31.675Z,85.64
2022-12-01T04:39:00.368Z,85.48
2022-12-01T04:41:28.058Z,85.69
2022-12-01T04:43:56.952Z,85.28
2022-12-01T04:46:25.648Z,85.66
2022-12-01T04:48:54.174Z,85.51
2022-12-01T04:51:22.325Z,85.57
2022-12-01T04:53:52.184Z,85.50
2022-12-01T04:56:20.113Z,85.81
2022-12-01T04:58:48.412Z,85.95
2022-12-01T05:01:17.819Z,86.00
2022-12-01T05:03:49.458Z,85.89
2022-12-01T05:06:19.797Z,86.00
2022-12-01T05:08:47.991Z,86.73
2022-12-01T05:11:17.862Z,86.12
2022-12-01T05:13:48.092Z,86.17
2022-12-01T05:16:18.233Z,86.11
2022-12-01T05:18:49.548Z,86.22
2022-12-01T05:21:17.545Z,86.39
2022-12-01T05:23:45.659Z,86.02
2022-12-01T05:26:13.651Z,86.27
2022-12-01T05:28:43.021Z,85.97
2022-12-01T05:31:11.395Z,86.41
2022-12-01T05:33:39.097Z,86.11
2022-12-01T05:36:07.765Z,85.90
2022-12-01T05:38:35.404Z,86.33
2022-12-01T05:41:03.527Z,85.95
2022-12-01T05:43:31.183Z,86.09
2022-12-01T05:46:01.117Z,85.92
2022-12-01T05:48:28.874Z,86.03
2022-12-01T05:50:56.523Z,86.44
2022-12-01T05:53:24.216Z,86.16
2022-12-01T05:55:54.161Z,85.46
2022-12-01T05:58:21.900Z,85.21
2022-12-01T06:00:50.265Z,85.48
2022-12-01T06:03:19.399Z,85.49
2022-12-01T06:05:47.585Z,85.60
2022-12-01T06:08:15.437Z,86.00
2022-12-01T06:10:43.434Z,86.17
2022-12-01T06:13:11.094Z,85.99
2022-12-01T06:15:38.833Z,85.82
2022-12-01T06:18:06.678Z,86.02
2022-12-01T06:20:35.877Z,85.98
2022-12-01T06:23:03.862Z,85.94
2022-12-01T06:25:31.885Z,85.90
2022-12-01T06:27:59.786Z,86.09
2022-12-01T06:30:28.303Z,86.30
2022-12-01T06:32:56.002Z,86.41
2022-12-01T06:35:24.059Z,86.52
2022-12-01T06:37:53.941Z,86.24
2022-12-01T06:40:22.291Z,86.70
2022-12-01T06:42:49.989Z,86.19
2022-12-01T06:45:17.898Z,86.54
2022-12-01T06:47:48.033Z,86.71
2022-12-01T06:50:16.118Z,86.53
2022-12-01T06:52:43.761Z,86.42
2022-12-01T06:55:13.339Z,86.15
2022-12-01T06:57:43.199Z,86.39
2022-12-01T07:00:13.496Z,86.65
2022-12-01T07:02:41.659Z,86.55
2022-12-01T07:05:09.680Z,86.35
2022-12-01T07:07:38.185Z,86.38
2022-12-01T07:10:06.823Z,86.33
2022-12-01T07:12:36.170Z,86.06
2022-12-01T07:15:04.104Z,86.49
2022-12-01T07:17:32.353Z,86.30
2022-12-01T07:20:00.015Z,86.11
2022-12-01T07:22:32.852Z,86.25
2022-12-01T07:25:00.756Z,86.14
2022-12-01T07:27:30.787Z,86.14
2022-12-01T07:29:59.782Z,86.01
2022-12-01T07:32:28.206Z,86.00
2022-12-01T07:34:56.269Z,86.18
2022-12-01T07:37:24.481Z,84.87
2022-12-01T07:39:52.189Z,84.17
2022-12-01T07:42:20.329Z,84.17
2022-12-01T07:44:47.966Z,84.43
2022-12-01T07:47:17.841Z,84.43
2022-12-01T07:49:45.476Z,84.14
2022-12-01T07:52:13.779Z,84.16
2022-12-01T07:54:41.439Z,84.03
2022-12-01T07:57:09.381Z,83.85
2022-12-01T07:59:37.036Z,83.69
2022-12-01T08:02:05.472Z,83.34
2022-12-01T08:04:34.574Z,82.71
2022-12-01T08:07:02.880Z,82.85
2022-12-01T08:09:30.828Z,82.91
2022-12-01T08:11:58.668Z,82.73
2022-12-01T08:14:26.327Z,82.79
2022-12-01T08:16:54.308Z,82.66
2022-12-01T08:19:21.924Z,81.91
2022-12-01T08:21:51.565Z,81.69
2022-12-01T08:24:19.583Z,81.34
2022-12-01T08:26:47.524Z,81.43
2022-12-01T08:29:19.914Z,81.94
2022-12-01T08:31:49.093Z,81.53
2022-12-01T08:34:16.741Z,81.44
2022-12-01T08:36:44.997Z,81.87
2022-12-01T08:39:14.162Z,82.10
2022-12-01T08:41:41.883Z,81.98
2022-12-01T08:44:10.903Z,81.78
2022-12-01T08:46:39.428Z,80.53
2022-12-01T08:49:07.780Z,79.52
2022-12-01T08:51:36.708Z,79.69
2022-12-01T08:54:05.489Z,80.45
2022-12-01T08:56:37.064Z,80.56
2022-12-01T08:59:05.654Z,80.80
2022-12-01T09:01:33.961Z,81.63
2022-12-01T09:04:07.958Z,80.78
2022-12-01T09:06:40.061Z,80.57
2022-12-01T09:09:08.646Z,81.28
2022-12-01T09:11:37.934Z,81.17
2022-12-01T09:14:06.243Z,81.13
2022-12-01T09:16:33.997Z,81.45
2022-12-01T09:19:01.981Z,81.28
2022-12-01T09:21:31.328Z,81.19
2022-12-01T09:24:00.454Z,81.28
2022-12-01T09:26:29.130Z,81.08
2022-12-01T09:29:01.269Z,81.44
2022-12-01T09:31:29.745Z,81.26
2022-12-01T09:33:58.533Z,81.69
2022-12-01T09:36:26.761Z,81.25
2022-12-01T09:38:54.794Z,81.20
2022-12-01T09:41:25.343Z,81.27
2022-12-01T09:44:01.691Z,81.27
2022-12-01T09:46:34.245Z,80.91
2022-12-01T09:49:04.592Z,81.36
2022-12-01T09:51:36.124Z,80.89
2022-12-01T09:54:04.857Z,81.08
2022-12-01T09:56:44.160Z,80.38
2022-12-01T09:59:22.630Z,80.19
2022-12-01T10:01:54.645Z,80.08
2022-12-01T10:04:29.474Z,79.78
2022-12-01T10:07:01.017Z,80.02
2022-12-01T10:09:36.271Z,79.84
2022-12-01T10:12:14.211Z,79.64
2022-12-01T10:14:45.913Z,79.75
2022-12-01T10:17:27.067Z,79.56
2022-12-01T10:20:02.663Z,79.71
2022-12-01T10:22:46.642Z,79.39
2022-12-01T10:25:22.095Z,79.51
2022-12-01T10:28:04.208Z,79.38
2022-12-01T10:30:41.757Z,79.78
2022-12-01T10:33:18.654Z,79.93
2022-12-01T10:35:46.374Z,79.71
2022-12-01T10:38:23.320Z,79.95
2022-12-01T10:40:53.325Z,80.26
2022-12-01T10:43:30.089Z,80.29
2022-12-01T10:46:01.706Z,80.48
2022-12-01T10:48:29.786Z,80.44
2022-12-01T10:51:15.786Z,80.57
2022-12-01T10:53:43.444Z,80.08
2022-12-01T10:56:18.263Z,80.09
2022-12-01T10:58:48.938Z,79.79
2022-12-01T11:01:21.524Z,79.92
2022-12-01T11:03:56.118Z,80.25
2022-12-01T11:06:28.532Z,80.36
2022-12-01T11:08:59.068Z,80.36
2022-12-01T11:11:31.470Z,80.46
2022-12-01T11:14:02.442Z,79.93
2022-12-01T11:16:38.656Z,79.67
2022-12-01T11:19:28.513Z,79.73
2022-12-01T11:21:57.989Z,79.72
2022-12-01T11:24:40.988Z,79.13
2022-12-01T11:27:17.303Z,78.83
2022-12-01T11:29:47.914Z,78.93
2022-12-01T11:32:24.504Z,78.89
2022-12-01T11:34:57.014Z,79.16
2022-12-01T11:37:30.042Z,79.15
2022-12-01T11:40:08.088Z,78.98
2022-12-01T11:42:37.021Z,79.10
2022-12-01T11:45:10.030Z,79.60
2022-12-01T11:48:03.185Z,79.72
2022-12-01T11:50:33.553Z,79.06
2022-12-01T11:53:01.383Z,78.58
2022-12-01T11:55:30.971Z,78.39
2022-12-01T11:58:02.680Z,78.57
2022-12-01T12:00:35.776Z,78.57
2022-12-01T12:03:19.627Z,78.85
2022-12-01T12:06:32.289Z,78.58
2022-12-01T12:09:12.617Z,78.49
2022-12-01T12:11:50.964Z,78.85
2022-12-01T12:14:41.769Z,78.32
2022-12-01T12:17:25.230Z,78.38
2022-12-01T12:20:09.492Z,78.57
2022-12-01T12:22:49.722Z,78.09
2022-12-01T12:25:28.559Z,77.21
2022-12-01T12:28:11.163Z,76.89
2022-12-01T12:30:43.555Z,77.30
2022-12-01T12:33:50.693Z,77.27
2022-12-01T12:36:31.514Z,77.34
2022-12-01T12:39:16.381Z,77.06
2022-12-01T12:41:47.229Z,77.13
2022-12-01T12:44:43.755Z,77.20
2022-12-01T12:47:26.441Z,76.71
2022-12-01T12:50:03.438Z,76.19
2022-12-01T12:52:36.655Z,75.83
2022-12-01T12:55:14.462Z,75.40
2022-12-01T12:57:46.425Z,75.60
2022-12-01T13:00:18.093Z,76.03
2022-12-01T13:02:49.630Z,76.09
2022-12-01T13:05:21.529Z,74.59
2022-12-01T13:07:56.242Z,74.58
2022-12-01T13:10:30.904Z,74.40
2022-12-01T13:13:05.357Z,74.26
2022-12-01T13:15:36.756Z,74.27
2022-12-01T13:18:13.526Z,74.79
2022-12-01T13:20:42.517Z,75.33
2022-12-01T13:23:17.535Z,75.33
2022-12-01T13:25:50.162Z,74.87
2022-12-01T13:28:22.026Z,74.74
2022-12-01T13:31:05.661Z,75.93
2022-12-01T13:33:35.712Z,75.46
2022-12-01T13:39:03.709Z,75.01
2022-12-01T13:41:34.481Z,74.24
2022-12-01T13:44:06.993Z,74.21
2022-12-01T13:46:53.041Z,75.06
2022-12-01T13:49:41.971Z,74.98
2022-12-01T13:52:28.791Z,75.41
2022-12-01T13:55:24.077Z,75.28
2022-12-01T13:58:41.543Z,75.53
2022-12-01T14:01:47.122Z,76.12
2022-12-01T14:04:31.827Z,75.86
2022-12-01T14:07:27.822Z,76.13
2022-12-01T14:10:08.219Z,76.02
2022-12-01T14:12:41.853Z,75.74
2022-12-01T14:15:28.699Z,75.97
2022-12-01T14:18:03.621Z,76.28
2022-12-01T14:20:35.273Z,76.89
2022-12-01T14:23:24.070Z,77.65
2022-12-01T14:26:17.805Z,78.11
2022-12-01T14:29:38.287Z,77.98
2022-12-01T14:32:23.901Z,78.28
2022-12-01T14:34:59.207Z,78.62
2022-12-01T14:37:36.834Z,78.83
2022-12-01T14:40:09.355Z,78.41
2022-12-01T14:42:58.096Z,78.23
2022-12-01T14:45:31.795Z,78.18
2022-12-01T14:48:04.451Z,78.52
2022-12-01T14:50:46.618Z,78.55
2022-12-01T14:53:22.914Z,78.36
2022-12-01T14:55:56.200Z,78.61
2022-12-01T14:58:27.504Z,78.65
2022-12-01T15:05:13.555Z,79.14
2022-12-01T15:07:43.294Z,79.26
2022-12-01T15:10:18.165Z,78.97
2022-12-01T15:12:46.204Z,79.28
2022-12-01T15:15:23.599Z,79.69
2022-12-01T15:17:53.035Z,79.15
2022-12-01T15:20:33.944Z,79.36
2022-12-01T15:23:03.731Z,79.03
2022-12-01T15:25:37.006Z,79.44
2022-12-01T15:28:13.419Z,79.62
2022-12-01T15:30:42.407Z,79.66
2022-12-01T15:33:17.295Z,80.22
2022-12-01T15:35:47.364Z,79.72
2022-12-01T15:38:18.546Z,79.87
2022-12-01T15:43:38.424Z,80.57
2022-12-01T15:46:13.830Z,80.98
2022-12-01T15:48:41.971Z,81.41
2022-12-01T15:51:15.529Z,81.15
2022-12-01T15:53:49.402Z,81.49
2022-12-01T15:56:18.260Z,81.38
2022-12-01T15:58:47.801Z,81.32
2022-12-01T16:01:18.231Z,81.48
2022-12-01T16:03:52.686Z,82.08
2022-12-01T16:06:25.055Z,82.41
2022-12-01T16:08:59.156Z,82.80
2022-12-01T16:11:27.591Z,82.89
2022-12-01T16:14:01.505Z,83.06
2022-12-01T16:16:37.148Z,83.18
2022-12-01T16:19:23.054Z,83.46
2022-12-01T16:21:55.405Z,83.65
2022-12-01T16:24:27.779Z,83.39
2022-12-01T16:26:59.572Z,83.69
2022-12-01T16:29:29.770Z,83.26
2022-12-01T16:34:49.471Z,83.66
2022-12-01T16:37:18.496Z,83.58
2022-12-01T16:39:46.821Z,83.48
2022-12-01T16:42:16.003Z,83.68
2022-12-01T16:44:44.798Z,83.84
2022-12-01T16:47:17.938Z,83.72
2022-12-01T16:49:45.896Z,83.99
2022-12-01T16:52:42.965Z,84.03
2022-12-01T16:55:03.105Z,84.50
2022-12-01T16:57:30.735Z,84.48
2022-12-01T16:59:58.731Z,84.54
2022-12-01T17:02:26.433Z,84.72
2022-12-01T17:04:54.359Z,85.04
2022-12-01T17:07:22.125Z,84.79
2022-12-01T17:09:49.943Z,84.90
2022-12-01T17:12:18.898Z,84.89
2022-12-01T17:14:46.681Z,85.11
2022-12-01T17:17:14.295Z,85.23
2022-12-01T17:19:42.170Z,85.30
2022-12-01T17:22:09.846Z,85.51
2022-12-01T17:24:38.181Z,85.57
2022-12-01T17:27:05.839Z,85.52
2022-12-01T17:29:35.282Z,85.50
2022-12-01T17:32:02.950Z,85.30
2022-12-01T17:34:30.814Z,85.29
2022-12-01T17:36:58.689Z,85.84
2022-12-01T17:39:26.616Z,85.64
2022-12-01T17:41:55.111Z,85.59
2022-12-01T17:44:23.185Z,85.56
2022-12-01T17:46:52.257Z,85.73
2022-12-01T17:49:20.447Z,85.88
2022-12-01T17:51:48.174Z,85.76
2022-12-01T17:54:17.019Z,85.83
2022-12-01T17:56:44.807Z,85.56
2022-12-01T17:59:13.110Z,85.51
2022-12-01T18:01:41.965Z,85.71
2022-12-01T18:04:11.336Z,85.55
2022-12-01T18:06:39.156Z,85.68
2022-12-01T18:09:07.667Z,86.20
2022-12-01T18:11:35.402Z,87.15
2022-12-01T18:14:04.111Z,87.13
2022-12-01T18:16:33.386Z,87.03
2022-12-01T18:19:02.516Z,86.78
2022-12-01T18:21:31.648Z,86.96
2022-12-01T18:24:01.171Z,87.12
2022-12-01T18:26:29.948Z,86.90
2022-12-01T18:28:59.776Z,87.30
2022-12-01T18:31:28.662Z,87.62
2022-12-01T18:33:58.890Z,87.22
2022-12-01T18:36:27.432Z,87.08
2022-12-01T18:38:59.140Z,87.64
2022-12-01T18:41:27.553Z,87.52
2022-12-01T18:43:55.548Z,87.30
2022-12-01T18:46:23.891Z,86.92
2022-12-01T18:48:53.707Z,87.17
2022-12-01T18:51:22.079Z,87.21
2022-12-01T18:53:50.158Z,87.05
2022-12-01T18:56:19.857Z,86.95
2022-12-01T18:58:47.599Z,87.03
2022-12-01T19:01:20.852Z,87.24
2022-12-01T19:03:48.878Z,87.14
2022-12-01T19:06:17.040Z,87.03
2022-12-01T19:08:47.394Z,87.27
2022-12-01T19:11:16.155Z,87.15
2022-12-01T19:13:45.315Z,87.19
2022-12-01T19:16:16.210Z,87.21
2022-12-01T19:18:44.493Z,87.21
2022-12-01T19:21:15.169Z,87.30
2022-12-01T19:23:43.769Z,87.24
2022-12-01T19:26:15.527Z,87.04
2022-12-01T19:28:45.353Z,87.16
2022-12-01T19:31:18.073Z,87.31
2022-12-01T19:33:45.904Z,87.17
2022-12-01T19:36:15.576Z,86.99
2022-12-01T19:38:44.423Z,87.25
2022-12-01T19:41:14.208Z,87.11
2022-12-01T19:43:43.147Z,86.83
2022-12-01T19:46:15.011Z,87.09
2022-12-01T19:48:44.205Z,87.30
2022-12-01T19:51:25.001Z,87.04
2022-12-01T19:53:52.974Z,87.15
2022-12-01T19:56:21.775Z,87.06
2022-12-01T19:58:50.685Z,86.68
2022-12-01T20:01:20.185Z,86.63
2022-12-01T20:03:51.272Z,86.79
2022-12-01T20:06:21.152Z,86.47
2022-12-01T20:08:49.304Z,86.79
2022-12-01T20:11:17.400Z,86.88
2022-12-01T20:13:47.088Z,87.24
2022-12-01T20:16:16.888Z,86.71
2022-12-01T20:18:45.520Z,87.16
2022-12-01T20:21:17.427Z,87.18
2022-12-01T20:23:46.690Z,87.20
2022-12-01T20:26:16.192Z,87.20
2022-12-01T20:28:45.353Z,87.08
2022-12-01T20:31:16.931Z,87.22
2022-12-01T20:33:44.663Z,86.97
2022-12-01T20:36:14.467Z,87.09
2022-12-01T20:38:42.646Z,86.85
2022-12-01T20:41:11.786Z,86.92
2022-12-01T20:43:39.741Z,86.89
2022-12-01T20:46:08.512Z,86.91
2022-12-01T20:48:36.525Z,87.03
2022-12-01T20:51:06.004Z,87.10
2022-12-01T20:53:36.025Z,87.13
2022-12-01T20:56:03.925Z,86.89
2022-12-01T20:58:37.032Z,86.79
2022-12-01T21:01:08.692Z,86.73
2022-12-01T21:03:36.437Z,87.02
2022-12-01T21:06:04.111Z,86.93
2022-12-01T21:08:32.326Z,86.69
2022-12-01T21:11:05.717Z,86.67
2022-12-01T21:13:39.561Z,86.69
2022-12-01T21:16:14.195Z,86.40
2022-12-01T21:18:51.742Z,86.62
2022-12-01T21:21:24.245Z,86.71
2022-12-01T21:24:04.699Z,86.88
2022-12-01T21:26:33.759Z,86.99
2022-12-01T21:29:01.859Z,86.89
2022-12-01T21:31:29.566Z,87.04
2022-12-01T21:33:57.423Z,86.90
2022-12-01T21:36:29.629Z,86.97
2022-12-01T21:39:10.589Z,86.86
2022-12-01T21:41:39.576Z,86.99
2022-12-01T21:44:14.577Z,87.14
2022-12-01T21:46:42.524Z,87.25
2022-12-01T21:49:18.573Z,86.99
2022-12-01T21:51:47.429Z,87.20
2022-12-01T21:54:19.793Z,86.83
2022-12-01T21:56:49.740Z,87.24
2022-12-01T21:59:21.076Z,87.14
2022-12-01T22:01:51.630Z,86.95
2022-12-01T22:04:22.489Z,86.60
2022-12-01T22:06:53.263Z,87.03
2022-12-01T22:09:25.973Z,86.96
2022-12-01T22:11:57.221Z,87.19
2022-12-01T22:14:29.899Z,87.30
2022-12-01T22:17:00.251Z,87.70
2022-12-01T22:19:31.461Z,87.43
2022-12-01T22:22:02.798Z,87.49
2022-12-01T22:24:38.743Z,87.53
2022-12-01T22:27:30.248Z,87.29
2022-12-01T22:30:00.383Z,87.46
2022-12-01T22:32:47.405Z,87.16
2022-12-01T22:35:35.923Z,87.21
2022-12-01T22:38:35.497Z,87.14
2022-12-01T22:41:06.472Z,87.30
2022-12-01T22:43:47.253Z,87.27
2022-12-01T22:46:31.244Z,87.49
2022-12-01T22:49:02.277Z,87.66
2022-12-01T22:51:40.544Z,87.38
2022-12-01T22:54:25.868Z,87.34
2022-12-01T22:57:04.743Z,87.50
2022-12-01T22:59:36.410Z,87.65
2022-12-01T23:02:20.404Z,87.37
2022-12-01T23:04:49.384Z,87.87
2022-12-01T23:07:32.688Z,87.68
2022-12-01T23:10:12.195Z,87.52
2022-12-01T23:12:40.065Z,87.46
2022-12-01T23:15:23.043Z,87.26
2022-12-01T23:17:51.591Z,87.26
2022-12-01T23:20:32.654Z,87.75
2022-12-01T23:23:02.397Z,87.81
2022-12-01T23:25:30.819Z,87.86
2022-12-01T23:28:01.719Z,88.14
2022-12-01T23:30:30.789Z,87.68
2022-12-01T23:33:07.581Z,87.86
2022-12-01T23:35:40.652Z,87.90
2022-12-01T23:38:15.676Z,87.78
2022-12-01T23:40:44.252Z,87.64
2022-12-01T23:43:18.507Z,87.91
2022-12-01T23:45:51.594Z,87.92
2022-12-01T23:48:22.910Z,87.41
2022-12-01T23:50:53.790Z,87.13
2022-12-01T23:53:27.907Z,87.29
2022-12-01T23:55:58.205Z,87.20
2022-12-01T23:58:26.213Z,86.99
